sensor_id;sensor_type;location;lat;lon;timestamp;P1;durP1;ratioP1;P2;durP2;ratioP2
3677;SDS011;1855;50.934;6.958;2022-10-04T00:02:02;8.70;;;7.90;;
3677;SDS011;1855;50.934;6.958;2022-10-04T00:04:41;11.60;;;8.30;;
3677;SDS011;1855;50.934;6.958;2022-10-04T00:07:15;9.00;;;8.10;;
3677;SDS011;1855;50.934;6.958;2022-10-04T00:09:47;9.20;;;8.17;;
3677;SDS011;1855;50.934;6.958;2022-10-04T00:12:16;8.60;;;7.80;;
3677;SDS011;1855;50.934;6.958;2022-10-04T00:14:48;8.80;;;8.00;;
3677;SDS011;1855;50.934;6.958;2022-10-04T00:17:17;8.90;;;8.00;;
3677;SDS011;1855;50.934;6.958;2022-10-04T00:19:48;9.67;;;8.33;;
3677;SDS011;1855;50.934;6.958;2022-10-04T00:22:17;8.45;;;7.55;;
3677;SDS011;1855;50.934;6.958;2022-10-04T00:25:12;8.80;;;7.60;;
3677;SDS011;1855;50.934;6.958;2022-10-04T00:30:43;8.13;;;7.32;;
3677;SDS011;1855;50.934;6.958;2022-10-04T00:33:10;8.45;;;7.65;;
3677;SDS011;1855;50.934;6.958;2022-10-04T00:35:57;8.63;;;7.50;;
3677;SDS011;1855;50.934;6.958;2022-10-04T00:38:24;8.75;;;7.85;;
3677;SDS011;1855;50.934;6.958;2022-10-04T00:40:54;8.68;;;7.82;;
3677;SDS011;1855;50.934;6.958;2022-10-04T00:43:26;8.80;;;7.90;;
3677;SDS011;1855;50.934;6.958;2022-10-04T00:45:57;8.10;;;7.40;;
3677;SDS011;1855;50.934;6.958;2022-10-04T00:48:32;9.20;;;7.63;;
3677;SDS011;1855;50.934;6.958;2022-10-04T00:51:08;8.65;;;7.70;;
3677;SDS011;1855;50.934;6.958;2022-10-04T00:53:50;9.00;;;8.10;;
3677;SDS011;1855;50.934;6.958;2022-10-04T00:56:28;9.82;;;8.40;;
3677;SDS011;1855;50.934;6.958;2022-10-04T00:59:04;9.70;;;7.90;;
3677;SDS011;1855;50.934;6.958;2022-10-04T01:01:39;9.77;;;8.00;;
3677;SDS011;1855;50.934;6.958;2022-10-04T01:04:12;8.60;;;7.80;;
3677;SDS011;1855;50.934;6.958;2022-10-04T01:06:49;9.82;;;8.15;;
3677;SDS011;1855;50.934;6.958;2022-10-04T01:09:16;8.67;;;7.47;;
3677;SDS011;1855;50.934;6.958;2022-10-04T01:11:46;8.80;;;7.90;;
3677;SDS011;1855;50.934;6.958;2022-10-04T01:14:24;9.32;;;7.78;;
3677;SDS011;1855;50.934;6.958;2022-10-04T01:16:57;9.50;;;8.32;;
3677;SDS011;1855;50.934;6.958;2022-10-04T01:19:25;8.90;;;8.10;;
3677;SDS011;1855;50.934;6.958;2022-10-04T01:21:57;8.90;;;8.00;;
3677;SDS011;1855;50.934;6.958;2022-10-04T01:24:33;10.05;;;8.27;;
3677;SDS011;1855;50.934;6.958;2022-10-04T01:27:00;9.93;;;8.30;;
3677;SDS011;1855;50.934;6.958;2022-10-04T01:29:28;8.85;;;7.75;;
3677;SDS011;1855;50.934;6.958;2022-10-04T01:31:57;8.80;;;7.90;;
3677;SDS011;1855;50.934;6.958;2022-10-04T01:34:26;8.27;;;7.43;;
3677;SDS011;1855;50.934;6.958;2022-10-04T01:36:55;8.95;;;8.15;;
3677;SDS011;1855;50.934;6.958;2022-10-04T01:39:23;8.40;;;7.60;;
3677;SDS011;1855;50.934;6.958;2022-10-04T01:41:54;8.38;;;7.30;;
3677;SDS011;1855;50.934;6.958;2022-10-04T01:44:27;8.85;;;7.95;;
3677;SDS011;1855;50.934;6.958;2022-10-04T01:46:58;9.68;;;7.90;;
3677;SDS011;1855;50.934;6.958;2022-10-04T01:49:29;8.07;;;7.28;;
3677;SDS011;1855;50.934;6.958;2022-10-04T01:52:00;8.68;;;7.22;;
3677;SDS011;1855;50.934;6.958;2022-10-04T01:54:32;9.70;;;7.30;;
3677;SDS011;1855;50.934;6.958;2022-10-04T01:57:05;8.23;;;7.47;;
3677;SDS011;1855;50.934;6.958;2022-10-04T01:59:38;8.10;;;7.30;;
3677;SDS011;1855;50.934;6.958;2022-10-04T02:02:14;8.73;;;7.60;;
3677;SDS011;1855;50.934;6.958;2022-10-04T02:04:48;8.97;;;8.03;;
3677;SDS011;1855;50.934;6.958;2022-10-04T02:07:17;8.27;;;7.40;;
3677;SDS011;1855;50.934;6.958;2022-10-04T02:09:46;10.83;;;8.10;;
3677;SDS011;1855;50.934;6.958;2022-10-04T02:12:16;8.70;;;7.80;;
3677;SDS011;1855;50.934;6.958;2022-10-04T02:14:45;8.55;;;7.75;;
3677;SDS011;1855;50.934;6.958;2022-10-04T02:17:17;8.65;;;7.10;;
3677;SDS011;1855;50.934;6.958;2022-10-04T02:19:45;10.30;;;7.90;;
3677;SDS011;1855;50.934;6.958;2022-10-04T02:22:13;8.77;;;7.30;;
3677;SDS011;1855;50.934;6.958;2022-10-04T02:24:41;9.20;;;8.10;;
3677;SDS011;1855;50.934;6.958;2022-10-04T02:27:10;8.02;;;7.32;;
3677;SDS011;1855;50.934;6.958;2022-10-04T02:29:38;9.25;;;7.43;;
3677;SDS011;1855;50.934;6.958;2022-10-04T02:32:05;10.70;;;7.68;;
3677;SDS011;1855;50.934;6.958;2022-10-04T02:34:51;8.48;;;7.57;;
3677;SDS011;1855;50.934;6.958;2022-10-04T02:37:20;8.30;;;7.60;;
3677;SDS011;1855;50.934;6.958;2022-10-04T02:39:49;8.70;;;7.80;;
3677;SDS011;1855;50.934;6.958;2022-10-04T02:42:21;8.73;;;7.60;;
3677;SDS011;1855;50.934;6.958;2022-10-04T02:45:02;8.75;;;7.85;;
3677;SDS011;1855;50.934;6.958;2022-10-04T02:47:36;9.35;;;8.02;;
3677;SDS011;1855;50.934;6.958;2022-10-04T02:50:15;8.45;;;7.65;;
3677;SDS011;1855;50.934;6.958;2022-10-04T02:52:50;9.35;;;8.00;;
3677;SDS011;1855;50.934;6.958;2022-10-04T02:55:23;9.68;;;8.48;;
3677;SDS011;1855;50.934;6.958;2022-10-04T02:57:52;11.32;;;8.60;;
3677;SDS011;1855;50.934;6.958;2022-10-04T03:00:22;8.20;;;7.50;;
3677;SDS011;1855;50.934;6.958;2022-10-04T03:03:10;9.45;;;7.80;;
3677;SDS011;1855;50.934;6.958;2022-10-04T03:05:42;8.60;;;7.80;;
3677;SDS011;1855;50.934;6.958;2022-10-04T03:08:11;9.95;;;8.10;;
3677;SDS011;1855;50.934;6.958;2022-10-04T03:10:38;8.82;;;7.28;;
3677;SDS011;1855;50.934;6.958;2022-10-04T03:13:08;9.30;;;7.50;;
3677;SDS011;1855;50.934;6.958;2022-10-04T03:15:38;8.30;;;7.53;;
3677;SDS011;1855;50.934;6.958;2022-10-04T03:18:05;8.18;;;7.03;;
3677;SDS011;1855;50.934;6.958;2022-10-04T03:20:35;8.07;;;7.00;;
3677;SDS011;1855;50.934;6.958;2022-10-04T03:23:02;7.95;;;7.07;;
3677;SDS011;1855;50.934;6.958;2022-10-04T03:28:15;8.75;;;7.60;;
3677;SDS011;1855;50.934;6.958;2022-10-04T03:30:44;10.93;;;8.10;;
3677;SDS011;1855;50.934;6.958;2022-10-04T03:33:14;12.02;;;7.72;;
3677;SDS011;1855;50.934;6.958;2022-10-04T03:35:45;8.30;;;7.50;;
3677;SDS011;1855;50.934;6.958;2022-10-04T03:38:15;8.13;;;7.32;;
3677;SDS011;1855;50.934;6.958;2022-10-04T03:40:44;8.45;;;7.65;;
3677;SDS011;1855;50.934;6.958;2022-10-04T03:43:17;10.80;;;8.20;;
3677;SDS011;1855;50.934;6.958;2022-10-04T03:45:48;8.30;;;7.60;;
3677;SDS011;1855;50.934;6.958;2022-10-04T03:48:17;8.90;;;7.55;;
3677;SDS011;1855;50.934;6.958;2022-10-04T03:50:53;9.80;;;7.90;;
3677;SDS011;1855;50.934;6.958;2022-10-04T03:53:24;8.40;;;7.60;;
3677;SDS011;1855;50.934;6.958;2022-10-04T03:55:54;8.30;;;7.45;;
3677;SDS011;1855;50.934;6.958;2022-10-04T03:58:23;8.20;;;7.40;;
3677;SDS011;1855;50.934;6.958;2022-10-04T04:00:58;8.13;;;6.82;;
3677;SDS011;1855;50.934;6.958;2022-10-04T04:03:31;8.52;;;7.75;;
3677;SDS011;1855;50.934;6.958;2022-10-04T04:06:13;9.30;;;7.70;;
3677;SDS011;1855;50.934;6.958;2022-10-04T04:08:41;8.88;;;8.07;;
3677;SDS011;1855;50.934;6.958;2022-10-04T04:11:13;8.93;;;7.88;;
3677;SDS011;1855;50.934;6.958;2022-10-04T04:13:45;9.17;;;8.37;;
3677;SDS011;1855;50.934;6.958;2022-10-04T04:16:20;9.30;;;8.40;;
3677;SDS011;1855;50.934;6.958;2022-10-04T04:18:50;8.65;;;7.85;;
3677;SDS011;1855;50.934;6.958;2022-10-04T04:21:18;8.50;;;7.70;;
3677;SDS011;1855;50.934;6.958;2022-10-04T04:23:48;8.60;;;7.80;;
3677;SDS011;1855;50.934;6.958;2022-10-04T04:26:22;9.07;;;8.05;;
3677;SDS011;1855;50.934;6.958;2022-10-04T04:28:53;8.17;;;7.37;;
3677;SDS011;1855;50.934;6.958;2022-10-04T04:31:24;8.70;;;7.90;;
3677;SDS011;1855;50.934;6.958;2022-10-04T04:33:55;9.77;;;8.20;;
3677;SDS011;1855;50.934;6.958;2022-10-04T04:36:24;8.75;;;7.85;;
3677;SDS011;1855;50.934;6.958;2022-10-04T04:38:53;9.15;;;8.40;;
3677;SDS011;1855;50.934;6.958;2022-10-04T04:41:48;8.98;;;8.15;;
3677;SDS011;1855;50.934;6.958;2022-10-04T04:44:15;8.38;;;7.57;;
3677;SDS011;1855;50.934;6.958;2022-10-04T04:46:44;10.60;;;8.80;;
3677;SDS011;1855;50.934;6.958;2022-10-04T04:49:12;9.93;;;9.02;;
3677;SDS011;1855;50.934;6.958;2022-10-04T04:51:45;11.80;;;9.70;;
3677;SDS011;1855;50.934;6.958;2022-10-04T04:54:15;10.95;;;9.85;;
3677;SDS011;1855;50.934;6.958;2022-10-04T04:56:46;9.90;;;8.90;;
3677;SDS011;1855;50.934;6.958;2022-10-04T04:59:14;11.60;;;8.93;;
3677;SDS011;1855;50.934;6.958;2022-10-04T05:01:42;10.55;;;9.45;;
3677;SDS011;1855;50.934;6.958;2022-10-04T05:04:15;10.73;;;9.73;;
3677;SDS011;1855;50.934;6.958;2022-10-04T05:06:44;10.00;;;9.00;;
3677;SDS011;1855;50.934;6.958;2022-10-04T05:09:21;9.70;;;8.80;;
3677;SDS011;1855;50.934;6.958;2022-10-04T05:11:49;9.40;;;8.60;;
3677;SDS011;1855;50.934;6.958;2022-10-04T05:14:18;9.10;;;8.30;;
3677;SDS011;1855;50.934;6.958;2022-10-04T05:16:48;9.27;;;8.18;;
3677;SDS011;1855;50.934;6.958;2022-10-04T05:19:18;9.52;;;8.63;;
3677;SDS011;1855;50.934;6.958;2022-10-04T05:21:50;9.35;;;8.35;;
3677;SDS011;1855;50.934;6.958;2022-10-04T05:24:20;8.40;;;7.60;;
3677;SDS011;1855;50.934;6.958;2022-10-04T05:26:49;9.40;;;8.50;;
3677;SDS011;1855;50.934;6.958;2022-10-04T05:29:17;9.10;;;8.20;;
3677;SDS011;1855;50.934;6.958;2022-10-04T05:31:47;9.50;;;8.70;;
3677;SDS011;1855;50.934;6.958;2022-10-04T05:34:23;9.45;;;8.55;;
3677;SDS011;1855;50.934;6.958;2022-10-04T05:39:53;9.80;;;8.90;;
3677;SDS011;1855;50.934;6.958;2022-10-04T05:42:35;9.43;;;8.60;;
3677;SDS011;1855;50.934;6.958;2022-10-04T05:45:10;9.55;;;8.65;;
3677;SDS011;1855;50.934;6.958;2022-10-04T05:47:42;10.10;;;9.20;;
3677;SDS011;1855;50.934;6.958;2022-10-04T05:50:13;9.90;;;8.80;;
3677;SDS011;1855;50.934;6.958;2022-10-04T05:52:42;10.75;;;8.90;;
3677;SDS011;1855;50.934;6.958;2022-10-04T05:55:16;9.43;;;8.48;;
3677;SDS011;1855;50.934;6.958;2022-10-04T06:00:56;9.80;;;8.90;;
3677;SDS011;1855;50.934;6.958;2022-10-04T06:03:49;10.20;;;9.40;;
3677;SDS011;1855;50.934;6.958;2022-10-04T06:06:28;9.23;;;8.43;;
3677;SDS011;1855;50.934;6.958;2022-10-04T06:09:05;10.27;;;9.23;;
3677;SDS011;1855;50.934;6.958;2022-10-04T06:11:43;9.52;;;8.70;;
3677;SDS011;1855;50.934;6.958;2022-10-04T06:14:20;10.18;;;9.18;;
3677;SDS011;1855;50.934;6.958;2022-10-04T06:17:11;9.60;;;8.80;;
3677;SDS011;1855;50.934;6.958;2022-10-04T06:19:59;9.25;;;8.45;;
3677;SDS011;1855;50.934;6.958;2022-10-04T06:22:40;9.35;;;8.30;;
3677;SDS011;1855;50.934;6.958;2022-10-04T06:25:10;9.88;;;8.50;;
3677;SDS011;1855;50.934;6.958;2022-10-04T06:27:42;9.32;;;8.32;;
3677;SDS011;1855;50.934;6.958;2022-10-04T06:30:15;9.35;;;8.40;;
3677;SDS011;1855;50.934;6.958;2022-10-04T06:32:50;9.70;;;8.70;;
3677;SDS011;1855;50.934;6.958;2022-10-04T06:35:49;10.90;;;8.85;;
3677;SDS011;1855;50.934;6.958;2022-10-04T06:41:32;12.30;;;8.10;;
3677;SDS011;1855;50.934;6.958;2022-10-04T06:44:27;9.73;;;8.80;;
3677;SDS011;1855;50.934;6.958;2022-10-04T06:47:13;10.02;;;8.98;;
3677;SDS011;1855;50.934;6.958;2022-10-04T06:49:53;9.05;;;8.15;;
3677;SDS011;1855;50.934;6.958;2022-10-04T06:52:27;10.50;;;9.15;;
3677;SDS011;1855;50.934;6.958;2022-10-04T06:58:00;9.25;;;8.35;;
3677;SDS011;1855;50.934;6.958;2022-10-04T07:00:52;10.75;;;8.70;;
3677;SDS011;1855;50.934;6.958;2022-10-04T07:03:25;9.60;;;8.80;;
3677;SDS011;1855;50.934;6.958;2022-10-04T07:05:57;9.57;;;8.63;;
3677;SDS011;1855;50.934;6.958;2022-10-04T07:08:32;9.80;;;8.80;;
3677;SDS011;1855;50.934;6.958;2022-10-04T07:11:06;10.10;;;9.10;;
3677;SDS011;1855;50.934;6.958;2022-10-04T07:13:41;9.43;;;8.60;;
3677;SDS011;1855;50.934;6.958;2022-10-04T07:16:21;11.18;;;10.10;;
3677;SDS011;1855;50.934;6.958;2022-10-04T07:18:56;10.50;;;9.40;;
3677;SDS011;1855;50.934;6.958;2022-10-04T07:21:35;9.80;;;8.77;;
3677;SDS011;1855;50.934;6.958;2022-10-04T07:24:10;9.57;;;8.68;;
3677;SDS011;1855;50.934;6.958;2022-10-04T07:26:44;9.70;;;8.70;;
3677;SDS011;1855;50.934;6.958;2022-10-04T07:29:14;8.95;;;8.25;;
3677;SDS011;1855;50.934;6.958;2022-10-04T07:31:46;9.95;;;8.40;;
3677;SDS011;1855;50.934;6.958;2022-10-04T07:34:16;9.50;;;8.50;;
3677;SDS011;1855;50.934;6.958;2022-10-04T07:36:50;9.52;;;8.52;;
3677;SDS011;1855;50.934;6.958;2022-10-04T07:39:22;8.90;;;8.00;;
3677;SDS011;1855;50.934;6.958;2022-10-04T07:41:53;9.80;;;8.90;;
3677;SDS011;1855;50.934;6.958;2022-10-04T07:44:29;8.85;;;8.15;;
3677;SDS011;1855;50.934;6.958;2022-10-04T07:47:02;9.20;;;8.40;;
3677;SDS011;1855;50.934;6.958;2022-10-04T07:49:38;8.52;;;7.82;;
3677;SDS011;1855;50.934;6.958;2022-10-04T07:52:18;9.00;;;8.10;;
3677;SDS011;1855;50.934;6.958;2022-10-04T07:55:06;9.82;;;8.65;;
3677;SDS011;1855;50.934;6.958;2022-10-04T07:57:45;9.32;;;8.43;;
3677;SDS011;1855;50.934;6.958;2022-10-04T08:00:18;8.90;;;8.10;;
3677;SDS011;1855;50.934;6.958;2022-10-04T08:02:50;9.20;;;8.30;;
3677;SDS011;1855;50.934;6.958;2022-10-04T08:05:34;9.47;;;8.57;;
3677;SDS011;1855;50.934;6.958;2022-10-04T08:08:16;9.30;;;8.40;;
3677;SDS011;1855;50.934;6.958;2022-10-04T08:10:58;9.00;;;8.30;;
3677;SDS011;1855;50.934;6.958;2022-10-04T08:13:37;8.88;;;8.15;;
3677;SDS011;1855;50.934;6.958;2022-10-04T08:16:12;8.43;;;7.72;;
3677;SDS011;1855;50.934;6.958;2022-10-04T08:18:50;9.45;;;8.65;;
3677;SDS011;1855;50.934;6.958;2022-10-04T08:21:31;9.15;;;8.25;;
3677;SDS011;1855;50.934;6.958;2022-10-04T08:24:14;9.30;;;8.43;;
3677;SDS011;1855;50.934;6.958;2022-10-04T08:26:54;8.55;;;7.85;;
3677;SDS011;1855;50.934;6.958;2022-10-04T08:29:46;10.02;;;9.00;;
3677;SDS011;1855;50.934;6.958;2022-10-04T08:32:28;8.65;;;7.93;;
3677;SDS011;1855;50.934;6.958;2022-10-04T08:35:10;8.60;;;7.80;;
3677;SDS011;1855;50.934;6.958;2022-10-04T08:37:52;8.55;;;7.75;;
3677;SDS011;1855;50.934;6.958;2022-10-04T08:40:36;8.50;;;7.70;;
3677;SDS011;1855;50.934;6.958;2022-10-04T08:43:31;8.38;;;7.68;;
3677;SDS011;1855;50.934;6.958;2022-10-04T08:46:41;7.65;;;6.90;;
3677;SDS011;1855;50.934;6.958;2022-10-04T08:49:44;7.43;;;6.72;;
3677;SDS011;1855;50.934;6.958;2022-10-04T08:52:38;7.78;;;6.60;;
3677;SDS011;1855;50.934;6.958;2022-10-04T08:55:45;7.30;;;6.60;;
3677;SDS011;1855;50.934;6.958;2022-10-04T08:58:43;9.35;;;7.10;;
3677;SDS011;1855;50.934;6.958;2022-10-04T09:01:45;6.85;;;6.25;;
3677;SDS011;1855;50.934;6.958;2022-10-04T09:10:40;6.80;;;6.10;;
3677;SDS011;1855;50.934;6.958;2022-10-04T09:13:26;6.90;;;6.30;;
3677;SDS011;1855;50.934;6.958;2022-10-04T09:16:10;8.23;;;7.33;;
3677;SDS011;1855;50.934;6.958;2022-10-04T09:18:49;10.30;;;7.30;;
3677;SDS011;1855;50.934;6.958;2022-10-04T09:21:27;6.60;;;5.90;;
3677;SDS011;1855;50.934;6.958;2022-10-04T09:27:22;6.70;;;4.90;;
3677;SDS011;1855;50.934;6.958;2022-10-04T09:30:09;5.45;;;5.00;;
3677;SDS011;1855;50.934;6.958;2022-10-04T09:32:44;5.63;;;5.13;;
3677;SDS011;1855;50.934;6.958;2022-10-04T09:35:29;5.63;;;5.13;;
3677;SDS011;1855;50.934;6.958;2022-10-04T09:38:27;5.80;;;5.30;;
3677;SDS011;1855;50.934;6.958;2022-10-04T09:41:26;5.13;;;4.63;;
3677;SDS011;1855;50.934;6.958;2022-10-04T09:44:18;5.00;;;4.30;;
3677;SDS011;1855;50.934;6.958;2022-10-04T09:47:10;5.55;;;4.85;;
3677;SDS011;1855;50.934;6.958;2022-10-04T09:52:56;5.15;;;4.60;;
3677;SDS011;1855;50.934;6.958;2022-10-04T09:55:52;5.03;;;4.18;;
3677;SDS011;1855;50.934;6.958;2022-10-04T09:58:37;5.83;;;4.27;;
3677;SDS011;1855;50.934;6.958;2022-10-04T10:01:20;4.77;;;4.27;;
3677;SDS011;1855;50.934;6.958;2022-10-04T10:04:04;4.40;;;3.97;;
3677;SDS011;1855;50.934;6.958;2022-10-04T10:07:03;4.13;;;3.72;;
3677;SDS011;1855;50.934;6.958;2022-10-04T10:09:40;4.13;;;3.67;;
3677;SDS011;1855;50.934;6.958;2022-10-04T10:12:39;4.00;;;3.70;;
3677;SDS011;1855;50.934;6.958;2022-10-04T10:15:47;5.53;;;3.60;;
3677;SDS011;1855;50.934;6.958;2022-10-04T10:18:24;4.50;;;3.80;;
3677;SDS011;1855;50.934;6.958;2022-10-04T10:21:10;4.50;;;4.00;;
3677;SDS011;1855;50.934;6.958;2022-10-04T10:27:23;4.80;;;3.47;;
3677;SDS011;1855;50.934;6.958;2022-10-04T10:30:20;3.70;;;3.40;;
3677;SDS011;1855;50.934;6.958;2022-10-04T10:36:21;4.27;;;3.60;;
3677;SDS011;1855;50.934;6.958;2022-10-04T10:39:18;4.23;;;3.40;;
3677;SDS011;1855;50.934;6.958;2022-10-04T10:42:06;3.88;;;3.28;;
3677;SDS011;1855;50.934;6.958;2022-10-04T10:45:05;5.18;;;3.58;;
3677;SDS011;1855;50.934;6.958;2022-10-04T10:47:45;3.60;;;3.30;;
3677;SDS011;1855;50.934;6.958;2022-10-04T10:53:30;4.25;;;3.42;;
3677;SDS011;1855;50.934;6.958;2022-10-04T10:56:37;7.28;;;3.70;;
3677;SDS011;1855;50.934;6.958;2022-10-04T11:02:38;5.05;;;3.40;;
3677;SDS011;1855;50.934;6.958;2022-10-04T11:05:23;4.20;;;2.90;;
3677;SDS011;1855;50.934;6.958;2022-10-04T11:08:29;4.50;;;3.10;;
3677;SDS011;1855;50.934;6.958;2022-10-04T11:11:26;5.72;;;3.20;;
3677;SDS011;1855;50.934;6.958;2022-10-04T11:14:19;4.35;;;2.90;;
3677;SDS011;1855;50.934;6.958;2022-10-04T11:17:13;3.15;;;2.60;;
3677;SDS011;1855;50.934;6.958;2022-10-04T11:23:23;4.83;;;2.80;;
3677;SDS011;1855;50.934;6.958;2022-10-04T11:29:20;2.58;;;2.38;;
3677;SDS011;1855;50.934;6.958;2022-10-04T11:32:25;3.40;;;2.70;;
3677;SDS011;1855;50.934;6.958;2022-10-04T11:35:33;3.72;;;2.58;;
3677;SDS011;1855;50.934;6.958;2022-10-04T11:38:21;5.70;;;2.90;;
3677;SDS011;1855;50.934;6.958;2022-10-04T11:43:50;3.88;;;2.88;;
3677;SDS011;1855;50.934;6.958;2022-10-04T11:46:41;4.20;;;2.40;;
3677;SDS011;1855;50.934;6.958;2022-10-04T11:49:18;2.90;;;2.40;;
3677;SDS011;1855;50.934;6.958;2022-10-04T11:55:15;3.38;;;2.60;;
3677;SDS011;1855;50.934;6.958;2022-10-04T11:58:23;3.40;;;2.30;;
3677;SDS011;1855;50.934;6.958;2022-10-04T12:01:18;4.45;;;2.85;;
3677;SDS011;1855;50.934;6.958;2022-10-04T12:04:21;3.17;;;2.47;;
3677;SDS011;1855;50.934;6.958;2022-10-04T12:07:00;4.30;;;2.80;;
3677;SDS011;1855;50.934;6.958;2022-10-04T12:09:38;3.35;;;2.65;;
3677;SDS011;1855;50.934;6.958;2022-10-04T12:15:17;4.03;;;2.40;;
3677;SDS011;1855;50.934;6.958;2022-10-04T12:21:09;4.25;;;2.83;;
3677;SDS011;1855;50.934;6.958;2022-10-04T12:24:18;4.90;;;3.10;;
3677;SDS011;1855;50.934;6.958;2022-10-04T12:27:17;4.22;;;2.80;;
3677;SDS011;1855;50.934;6.958;2022-10-04T12:30:13;3.40;;;2.40;;
3677;SDS011;1855;50.934;6.958;2022-10-04T12:32:57;2.97;;;2.30;;
3677;SDS011;1855;50.934;6.958;2022-10-04T12:38:33;2.92;;;2.20;;
3677;SDS011;1855;50.934;6.958;2022-10-04T12:41:27;2.50;;;2.30;;
3677;SDS011;1855;50.934;6.958;2022-10-04T12:44:02;3.92;;;2.20;;
3677;SDS011;1855;50.934;6.958;2022-10-04T12:46:46;3.00;;;2.60;;
3677;SDS011;1855;50.934;6.958;2022-10-04T12:49:25;3.90;;;2.23;;
3677;SDS011;1855;50.934;6.958;2022-10-04T12:52:03;2.67;;;2.47;;
3677;SDS011;1855;50.934;6.958;2022-10-04T12:54:37;3.10;;;2.50;;
3677;SDS011;1855;50.934;6.958;2022-10-04T12:57:13;3.22;;;2.30;;
3677;SDS011;1855;50.934;6.958;2022-10-04T13:00:03;2.67;;;2.30;;
3677;SDS011;1855;50.934;6.958;2022-10-04T13:02:44;3.63;;;2.20;;
3677;SDS011;1855;50.934;6.958;2022-10-04T13:05:22;2.38;;;2.17;;
3677;SDS011;1855;50.934;6.958;2022-10-04T13:11:00;3.90;;;2.60;;
3677;SDS011;1855;50.934;6.958;2022-10-04T13:16:52;2.42;;;2.20;;
3677;SDS011;1855;50.934;6.958;2022-10-04T13:19:26;2.35;;;2.15;;
3677;SDS011;1855;50.934;6.958;2022-10-04T13:22:11;3.53;;;2.58;;
3677;SDS011;1855;50.934;6.958;2022-10-04T13:24:50;3.17;;;2.20;;
3677;SDS011;1855;50.934;6.958;2022-10-04T13:27:28;3.20;;;2.40;;
3677;SDS011;1855;50.934;6.958;2022-10-04T13:30:03;3.20;;;2.40;;
3677;SDS011;1855;50.934;6.958;2022-10-04T13:32:41;3.33;;;2.50;;
3677;SDS011;1855;50.934;6.958;2022-10-04T13:35:16;3.50;;;2.50;;
3677;SDS011;1855;50.934;6.958;2022-10-04T13:37:52;4.63;;;2.60;;
3677;SDS011;1855;50.934;6.958;2022-10-04T13:40:46;4.22;;;2.33;;
3677;SDS011;1855;50.934;6.958;2022-10-04T13:43:39;3.40;;;2.47;;
3677;SDS011;1855;50.934;6.958;2022-10-04T13:46:20;3.80;;;2.60;;
3677;SDS011;1855;50.934;6.958;2022-10-04T13:48:59;3.17;;;2.20;;
3677;SDS011;1855;50.934;6.958;2022-10-04T13:51:42;2.83;;;2.20;;
3677;SDS011;1855;50.934;6.958;2022-10-04T13:54:42;3.67;;;2.33;;
3677;SDS011;1855;50.934;6.958;2022-10-04T13:57:36;2.38;;;2.15;;
3677;SDS011;1855;50.934;6.958;2022-10-04T14:00:09;4.05;;;2.47;;
3677;SDS011;1855;50.934;6.958;2022-10-04T14:02:46;2.75;;;2.20;;
3677;SDS011;1855;50.934;6.958;2022-10-04T14:08:50;2.50;;;2.10;;
3677;SDS011;1855;50.934;6.958;2022-10-04T14:11:34;4.55;;;2.55;;
3677;SDS011;1855;50.934;6.958;2022-10-04T14:14:30;2.58;;;2.10;;
3677;SDS011;1855;50.934;6.958;2022-10-04T14:27:14;3.80;;;2.40;;
3677;SDS011;1855;50.934;6.958;2022-10-04T14:35:51;3.00;;;2.37;;
3677;SDS011;1855;50.934;6.958;2022-10-04T14:38:35;3.45;;;2.33;;
3677;SDS011;1855;50.934;6.958;2022-10-04T14:47:32;3.38;;;2.40;;
3677;SDS011;1855;50.934;6.958;2022-10-04T14:50:27;3.15;;;2.10;;
3677;SDS011;1855;50.934;6.958;2022-10-04T14:53:09;2.97;;;2.15;;
3677;SDS011;1855;50.934;6.958;2022-10-04T14:58:38;3.10;;;2.40;;
3677;SDS011;1855;50.934;6.958;2022-10-04T15:01:16;5.55;;;2.50;;
3677;SDS011;1855;50.934;6.958;2022-10-04T15:06:44;3.05;;;2.13;;
3677;SDS011;1855;50.934;6.958;2022-10-04T15:12:37;3.80;;;2.58;;
3677;SDS011;1855;50.934;6.958;2022-10-04T15:15:26;3.20;;;2.10;;
3677;SDS011;1855;50.934;6.958;2022-10-04T15:18:09;3.28;;;2.40;;
3677;SDS011;1855;50.934;6.958;2022-10-04T15:20:52;4.75;;;2.38;;
3677;SDS011;1855;50.934;6.958;2022-10-04T15:23:27;2.60;;;2.40;;
3677;SDS011;1855;50.934;6.958;2022-10-04T15:26:00;3.30;;;2.55;;
3677;SDS011;1855;50.934;6.958;2022-10-04T15:28:38;2.60;;;2.30;;
3677;SDS011;1855;50.934;6.958;2022-10-04T15:31:22;2.85;;;2.10;;
3677;SDS011;1855;50.934;6.958;2022-10-04T15:33:57;3.72;;;2.45;;
3677;SDS011;1855;50.934;6.958;2022-10-04T15:39:48;3.28;;;2.40;;
3677;SDS011;1855;50.934;6.958;2022-10-04T15:42:31;2.50;;;2.30;;
3677;SDS011;1855;50.934;6.958;2022-10-04T15:48:03;3.88;;;2.53;;
3677;SDS011;1855;50.934;6.958;2022-10-04T15:50:53;3.90;;;2.40;;
3677;SDS011;1855;50.934;6.958;2022-10-04T15:53:29;3.13;;;2.30;;
3677;SDS011;1855;50.934;6.958;2022-10-04T15:56:21;4.15;;;2.38;;
3677;SDS011;1855;50.934;6.958;2022-10-04T15:59:10;3.45;;;2.60;;
3677;SDS011;1855;50.934;6.958;2022-10-04T16:02:06;2.80;;;2.50;;
3677;SDS011;1855;50.934;6.958;2022-10-04T16:05:02;2.60;;;2.40;;
3677;SDS011;1855;50.934;6.958;2022-10-04T16:07:52;3.80;;;2.60;;
3677;SDS011;1855;50.934;6.958;2022-10-04T16:10:47;4.00;;;2.40;;
3677;SDS011;1855;50.934;6.958;2022-10-04T16:13:37;2.58;;;2.35;;
3677;SDS011;1855;50.934;6.958;2022-10-04T16:16:18;5.28;;;2.47;;
3677;SDS011;1855;50.934;6.958;2022-10-04T16:19:27;2.90;;;2.60;;
3677;SDS011;1855;50.934;6.958;2022-10-04T16:22:09;3.00;;;2.70;;
3677;SDS011;1855;50.934;6.958;2022-10-04T16:24:43;3.00;;;2.40;;
3677;SDS011;1855;50.934;6.958;2022-10-04T16:30:11;3.95;;;2.60;;
3677;SDS011;1855;50.934;6.958;2022-10-04T16:32:44;4.10;;;2.60;;
3677;SDS011;1855;50.934;6.958;2022-10-04T16:35:27;3.22;;;2.83;;
3677;SDS011;1855;50.934;6.958;2022-10-04T16:37:57;3.47;;;2.80;;
3677;SDS011;1855;50.934;6.958;2022-10-04T16:40:36;4.78;;;2.80;;
3677;SDS011;1855;50.934;6.958;2022-10-04T16:43:22;3.65;;;2.80;;
3677;SDS011;1855;50.934;6.958;2022-10-04T16:46:02;3.90;;;2.70;;
3677;SDS011;1855;50.934;6.958;2022-10-04T16:48:37;4.85;;;3.40;;
3677;SDS011;1855;50.934;6.958;2022-10-04T16:51:21;2.57;;;2.37;;
3677;SDS011;1855;50.934;6.958;2022-10-04T16:57:14;3.10;;;2.80;;
3677;SDS011;1855;50.934;6.958;2022-10-04T16:59:50;4.05;;;3.17;;
3677;SDS011;1855;50.934;6.958;2022-10-04T17:02:34;3.67;;;2.78;;
3677;SDS011;1855;50.934;6.958;2022-10-04T17:05:27;3.55;;;3.05;;
3677;SDS011;1855;50.934;6.958;2022-10-04T17:11:16;4.38;;;3.40;;
3677;SDS011;1855;50.934;6.958;2022-10-04T17:13:58;4.30;;;3.50;;
3677;SDS011;1855;50.934;6.958;2022-10-04T17:16:30;5.18;;;3.40;;
3677;SDS011;1855;50.934;6.958;2022-10-04T17:19:12;4.10;;;2.97;;
3677;SDS011;1855;50.934;6.958;2022-10-04T17:21:51;3.95;;;3.10;;
3677;SDS011;1855;50.934;6.958;2022-10-04T17:24:27;4.70;;;3.00;;
3677;SDS011;1855;50.934;6.958;2022-10-04T17:27:15;4.00;;;3.20;;
3677;SDS011;1855;50.934;6.958;2022-10-04T17:29:57;5.20;;;3.40;;
3677;SDS011;1855;50.934;6.958;2022-10-04T17:32:32;4.20;;;3.80;;
3677;SDS011;1855;50.934;6.958;2022-10-04T17:35:15;4.10;;;2.90;;
3677;SDS011;1855;50.934;6.958;2022-10-04T17:38:06;2.90;;;2.40;;
3677;SDS011;1855;50.934;6.958;2022-10-04T17:40:40;2.77;;;2.50;;
3677;SDS011;1855;50.934;6.958;2022-10-04T17:43:13;2.88;;;2.53;;
3677;SDS011;1855;50.934;6.958;2022-10-04T17:45:51;3.70;;;2.47;;
3677;SDS011;1855;50.934;6.958;2022-10-04T17:48:38;2.63;;;2.30;;
3677;SDS011;1855;50.934;6.958;2022-10-04T17:51:37;2.80;;;2.40;;
3677;SDS011;1855;50.934;6.958;2022-10-04T17:54:26;4.10;;;2.30;;
3677;SDS011;1855;50.934;6.958;2022-10-04T17:57:16;3.00;;;2.60;;
3677;SDS011;1855;50.934;6.958;2022-10-04T17:59:47;3.25;;;2.30;;
3677;SDS011;1855;50.934;6.958;2022-10-04T18:02:18;3.50;;;2.30;;
3677;SDS011;1855;50.934;6.958;2022-10-04T18:04:49;2.90;;;2.53;;
3677;SDS011;1855;50.934;6.958;2022-10-04T18:07:21;4.90;;;3.95;;
3677;SDS011;1855;50.934;6.958;2022-10-04T18:09:53;3.85;;;3.45;;
3677;SDS011;1855;50.934;6.958;2022-10-04T18:12:25;3.17;;;2.80;;
3677;SDS011;1855;50.934;6.958;2022-10-04T18:14:57;3.03;;;2.72;;
3677;SDS011;1855;50.934;6.958;2022-10-04T18:17:31;3.45;;;2.80;;
3677;SDS011;1855;50.934;6.958;2022-10-04T18:20:14;3.25;;;2.95;;
3677;SDS011;1855;50.934;6.958;2022-10-04T18:22:54;3.33;;;2.95;;
3677;SDS011;1855;50.934;6.958;2022-10-04T18:25:24;4.22;;;3.40;;
3677;SDS011;1855;50.934;6.958;2022-10-04T18:27:58;4.07;;;2.92;;
3677;SDS011;1855;50.934;6.958;2022-10-04T18:30:28;4.28;;;2.90;;